sensor_id;sensor_type;location;lat;lon;timestamp;temperature;humidity
35240;DHT22;21376;50.954;4.716;2023-07-30T00:00:42;15.80;99.90
35240;DHT22;21376;50.954;4.716;2023-07-30T00:03:08;15.80;99.90
35240;DHT22;21376;50.954;4.716;2023-07-30T00:05:37;15.70;99.90
35240;DHT22;21376;50.954;4.716;2023-07-30T00:08:08;15.60;99.90
35240;DHT22;21376;50.954;4.716;2023-07-30T00:13:06;15.50;99.90
35240;DHT22;21376;50.954;4.716;2023-07-30T00:15:33;15.60;99.90
35240;DHT22;21376;50.954;4.716;2023-07-30T00:17:59;15.50;99.90
35240;DHT22;21376;50.954;4.716;2023-07-30T00:20:26;15.20;99.90
35240;DHT22;21376;50.954;4.716;2023-07-30T00:22:52;15.40;99.90
35240;DHT22;21376;50.954;4.716;2023-07-30T00:25:20;15.40;99.90
35240;DHT22;21376;50.954;4.716;2023-07-30T00:27:52;15.50;99.90
35240;DHT22;21376;50.954;4.716;2023-07-30T00:30:18;15.50;99.90
35240;DHT22;21376;50.954;4.716;2023-07-30T00:32:44;15.50;99.90
35240;DHT22;21376;50.954;4.716;2023-07-30T00:35:10;15.50;99.90
35240;DHT22;21376;50.954;4.716;2023-07-30T00:37:48;15.50;99.90
35240;DHT22;21376;50.954;4.716;2023-07-30T00:40:14;15.60;99.90
35240;DHT22;21376;50.954;4.716;2023-07-30T00:42:44;15.60;99.90
35240;DHT22;21376;50.954;4.716;2023-07-30T00:45:12;15.60;99.90
35240;DHT22;21376;50.954;4.716;2023-07-30T00:47:37;15.60;99.90
35240;DHT22;21376;50.954;4.716;2023-07-30T00:50:12;15.50;99.90
35240;DHT22;21376;50.954;4.716;2023-07-30T00:52:40;15.60;99.90
35240;DHT22;21376;50.954;4.716;2023-07-30T00:55:05;15.40;99.90
35240;DHT22;21376;50.954;4.716;2023-07-30T00:57:36;15.50;99.90
35240;DHT22;21376;50.954;4.716;2023-07-30T01:05:12;15.30;99.90
35240;DHT22;21376;50.954;4.716;2023-07-30T01:07:41;15.40;99.90
35240;DHT22;21376;50.954;4.716;2023-07-30T01:13:08;15.50;99.90
35240;DHT22;21376;50.954;4.716;2023-07-30T01:21:11;15.40;99.90
35240;DHT22;21376;50.954;4.716;2023-07-30T01:26:14;15.60;99.90
35240;DHT22;21376;50.954;4.716;2023-07-30T01:28:46;15.60;99.90
35240;DHT22;21376;50.954;4.716;2023-07-30T01:31:16;15.70;99.90
35240;DHT22;21376;50.954;4.716;2023-07-30T01:33:47;15.80;99.90
35240;DHT22;21376;50.954;4.716;2023-07-30T01:36:14;15.80;99.90
35240;DHT22;21376;50.954;4.716;2023-07-30T01:41:11;15.90;99.90
35240;DHT22;21376;50.954;4.716;2023-07-30T01:43:38;16.00;99.90
35240;DHT22;21376;50.954;4.716;2023-07-30T01:48:37;16.10;99.90
35240;DHT22;21376;50.954;4.716;2023-07-30T01:51:08;16.20;99.90
35240;DHT22;21376;50.954;4.716;2023-07-30T01:56:03;16.40;99.90
35240;DHT22;21376;50.954;4.716;2023-07-30T02:03:29;16.50;99.90
35240;DHT22;21376;50.954;4.716;2023-07-30T02:06:01;16.50;99.90
35240;DHT22;21376;50.954;4.716;2023-07-30T02:08:28;16.40;99.90
35240;DHT22;21376;50.954;4.716;2023-07-30T02:10:57;16.40;99.90
35240;DHT22;21376;50.954;4.716;2023-07-30T02:13:25;16.50;99.90
35240;DHT22;21376;50.954;4.716;2023-07-30T02:15:53;16.40;99.90
35240;DHT22;21376;50.954;4.716;2023-07-30T02:18:35;16.40;99.90
35240;DHT22;21376;50.954;4.716;2023-07-30T02:23:33;16.20;99.90
35240;DHT22;21376;50.954;4.716;2023-07-30T02:26:00;16.50;99.90
35240;DHT22;21376;50.954;4.716;2023-07-30T02:33:26;16.40;99.90
35240;DHT22;21376;50.954;4.716;2023-07-30T02:35:56;16.30;99.90
35240;DHT22;21376;50.954;4.716;2023-07-30T02:41:11;16.20;99.90
35240;DHT22;21376;50.954;4.716;2023-07-30T02:46:09;16.20;99.90
35240;DHT22;21376;50.954;4.716;2023-07-30T02:48:46;16.20;99.90
35240;DHT22;21376;50.954;4.716;2023-07-30T02:51:28;16.20;99.90
35240;DHT22;21376;50.954;4.716;2023-07-30T02:54:03;16.20;99.90
35240;DHT22;21376;50.954;4.716;2023-07-30T02:56:32;16.10;99.90
35240;DHT22;21376;50.954;4.716;2023-07-30T02:59:09;16.10;99.90
35240;DHT22;21376;50.954;4.716;2023-07-30T03:01:35;16.10;99.90
35240;DHT22;21376;50.954;4.716;2023-07-30T03:04:03;16.00;99.90
35240;DHT22;21376;50.954;4.716;2023-07-30T03:06:29;16.00;99.90
35240;DHT22;21376;50.954;4.716;2023-07-30T03:11:27;16.00;99.90
35240;DHT22;21376;50.954;4.716;2023-07-30T03:14:00;15.90;99.90
35240;DHT22;21376;50.954;4.716;2023-07-30T03:16:31;15.90;99.90
35240;DHT22;21376;50.954;4.716;2023-07-30T03:19:00;15.90;99.90
35240;DHT22;21376;50.954;4.716;2023-07-30T03:21:28;15.90;99.90
35240;DHT22;21376;50.954;4.716;2023-07-30T03:23:54;15.90;99.90
35240;DHT22;21376;50.954;4.716;2023-07-30T03:26:21;16.00;99.90
35240;DHT22;21376;50.954;4.716;2023-07-30T03:28:48;16.20;99.90
35240;DHT22;21376;50.954;4.716;2023-07-30T03:31:16;16.20;99.90
35240;DHT22;21376;50.954;4.716;2023-07-30T03:33:41;16.20;99.90
35240;DHT22;21376;50.954;4.716;2023-07-30T03:38:49;16.40;99.90
35240;DHT22;21376;50.954;4.716;2023-07-30T03:41:18;16.40;99.90
35240;DHT22;21376;50.954;4.716;2023-07-30T03:43:44;16.40;99.90
35240;DHT22;21376;50.954;4.716;2023-07-30T03:46:12;16.40;99.90
35240;DHT22;21376;50.954;4.716;2023-07-30T03:51:17;16.50;99.90
35240;DHT22;21376;50.954;4.716;2023-07-30T03:53:45;16.60;99.90
35240;DHT22;21376;50.954;4.716;2023-07-30T03:56:14;16.60;99.90
35240;DHT22;21376;50.954;4.716;2023-07-30T03:58:45;16.50;99.90
35240;DHT22;21376;50.954;4.716;2023-07-30T04:01:11;16.50;99.90
35240;DHT22;21376;50.954;4.716;2023-07-30T04:03:39;16.70;99.90
35240;DHT22;21376;50.954;4.716;2023-07-30T04:06:04;16.80;99.90
35240;DHT22;21376;50.954;4.716;2023-07-30T04:11:02;16.40;99.90
35240;DHT22;21376;50.954;4.716;2023-07-30T04:13:30;16.70;99.90
35240;DHT22;21376;50.954;4.716;2023-07-30T04:15:56;16.80;99.90
35240;DHT22;21376;50.954;4.716;2023-07-30T04:18:23;16.80;99.90
35240;DHT22;21376;50.954;4.716;2023-07-30T04:25:51;16.90;99.90
35240;DHT22;21376;50.954;4.716;2023-07-30T04:31:04;17.00;99.90
35240;DHT22;21376;50.954;4.716;2023-07-30T04:33:33;16.90;99.90
35240;DHT22;21376;50.954;4.716;2023-07-30T04:35:59;16.80;99.90
35240;DHT22;21376;50.954;4.716;2023-07-30T04:38:36;16.80;99.90
35240;DHT22;21376;50.954;4.716;2023-07-30T04:41:03;16.80;99.90
35240;DHT22;21376;50.954;4.716;2023-07-30T04:43:28;16.70;99.90
35240;DHT22;21376;50.954;4.716;2023-07-30T04:45:57;16.60;99.90
35240;DHT22;21376;50.954;4.716;2023-07-30T04:48:23;16.80;99.90
35240;DHT22;21376;50.954;4.716;2023-07-30T04:50:49;16.80;99.90
35240;DHT22;21376;50.954;4.716;2023-07-30T04:53:14;16.70;99.90
35240;DHT22;21376;50.954;4.716;2023-07-30T04:55:44;16.70;99.90
35240;DHT22;21376;50.954;4.716;2023-07-30T04:58:13;16.70;99.90
35240;DHT22;21376;50.954;4.716;2023-07-30T05:03:11;16.90;99.90
35240;DHT22;21376;50.954;4.716;2023-07-30T05:05:40;17.00;99.90
35240;DHT22;21376;50.954;4.716;2023-07-30T05:08:08;16.90;99.90
35240;DHT22;21376;50.954;4.716;2023-07-30T05:10:39;16.80;99.90
35240;DHT22;21376;50.954;4.716;2023-07-30T05:13:16;16.90;99.90
35240;DHT22;21376;50.954;4.716;2023-07-30T05:15:44;16.80;99.90
35240;DHT22;21376;50.954;4.716;2023-07-30T05:18:10;16.80;99.90
35240;DHT22;21376;50.954;4.716;2023-07-30T05:20:39;16.80;99.90
35240;DHT22;21376;50.954;4.716;2023-07-30T05:23:08;17.00;99.90
35240;DHT22;21376;50.954;4.716;2023-07-30T05:25:36;17.00;99.90
35240;DHT22;21376;50.954;4.716;2023-07-30T05:28:21;17.10;99.90
35240;DHT22;21376;50.954;4.716;2023-07-30T05:30:47;17.10;99.90
35240;DHT22;21376;50.954;4.716;2023-07-30T05:33:14;17.00;99.90
35240;DHT22;21376;50.954;4.716;2023-07-30T05:35:43;17.10;99.90
35240;DHT22;21376;50.954;4.716;2023-07-30T05:38:10;17.00;99.90
35240;DHT22;21376;50.954;4.716;2023-07-30T05:40:50;17.00;99.90
35240;DHT22;21376;50.954;4.716;2023-07-30T05:45:47;17.00;99.90
35240;DHT22;21376;50.954;4.716;2023-07-30T05:48:18;17.00;99.90
35240;DHT22;21376;50.954;4.716;2023-07-30T05:50:44;17.00;99.90
35240;DHT22;21376;50.954;4.716;2023-07-30T05:58:53;17.50;99.90
35240;DHT22;21376;50.954;4.716;2023-07-30T06:01:37;17.60;99.90
35240;DHT22;21376;50.954;4.716;2023-07-30T06:04:04;17.80;99.90
35240;DHT22;21376;50.954;4.716;2023-07-30T06:06:30;18.00;99.90
35240;DHT22;21376;50.954;4.716;2023-07-30T06:08:56;18.20;99.90
35240;DHT22;21376;50.954;4.716;2023-07-30T06:11:25;18.50;99.90
35240;DHT22;21376;50.954;4.716;2023-07-30T06:13:53;18.80;99.90
35240;DHT22;21376;50.954;4.716;2023-07-30T06:16:25;19.00;99.90
35240;DHT22;21376;50.954;4.716;2023-07-30T06:18:52;18.60;99.90
35240;DHT22;21376;50.954;4.716;2023-07-30T06:23:50;18.30;99.90
35240;DHT22;21376;50.954;4.716;2023-07-30T06:26:18;18.20;99.90
35240;DHT22;21376;50.954;4.716;2023-07-30T06:28:47;18.00;99.90
35240;DHT22;21376;50.954;4.716;2023-07-30T06:31:15;18.00;99.90
35240;DHT22;21376;50.954;4.716;2023-07-30T06:33:42;18.00;99.90
35240;DHT22;21376;50.954;4.716;2023-07-30T06:36:11;17.80;99.90
35240;DHT22;21376;50.954;4.716;2023-07-30T06:38:38;18.00;99.90
35240;DHT22;21376;50.954;4.716;2023-07-30T06:45:54;18.20;99.90
35240;DHT22;21376;50.954;4.716;2023-07-30T06:50:49;18.40;99.90
35240;DHT22;21376;50.954;4.716;2023-07-30T06:53:21;18.80;99.90
35240;DHT22;21376;50.954;4.716;2023-07-30T06:55:48;19.10;99.90
35240;DHT22;21376;50.954;4.716;2023-07-30T06:58:17;19.00;99.90
35240;DHT22;21376;50.954;4.716;2023-07-30T07:00:46;19.10;99.90
35240;DHT22;21376;50.954;4.716;2023-07-30T07:03:14;19.30;99.90
35240;DHT22;21376;50.954;4.716;2023-07-30T07:05:40;19.10;99.90
35240;DHT22;21376;50.954;4.716;2023-07-30T07:08:09;19.00;99.90
35240;DHT22;21376;50.954;4.716;2023-07-30T07:13:06;21.60;99.90
35240;DHT22;21376;50.954;4.716;2023-07-30T07:18:15;25.20;99.90
35240;DHT22;21376;50.954;4.716;2023-07-30T07:20:49;26.20;99.90
35240;DHT22;21376;50.954;4.716;2023-07-30T07:23:17;26.90;99.90
35240;DHT22;21376;50.954;4.716;2023-07-30T07:25:43;26.70;99.90
35240;DHT22;21376;50.954;4.716;2023-07-30T07:28:12;26.00;99.90
35240;DHT22;21376;50.954;4.716;2023-07-30T07:30:45;24.70;99.90
35240;DHT22;21376;50.954;4.716;2023-07-30T07:33:12;24.60;99.90
35240;DHT22;21376;50.954;4.716;2023-07-30T07:35:41;24.50;99.90
35240;DHT22;21376;50.954;4.716;2023-07-30T07:41:13;24.20;99.90
35240;DHT22;21376;50.954;4.716;2023-07-30T07:46:07;23.10;99.90
35240;DHT22;21376;50.954;4.716;2023-07-30T07:48:44;22.30;99.90
35240;DHT22;21376;50.954;4.716;2023-07-30T07:56:17;28.40;99.90
35240;DHT22;21376;50.954;4.716;2023-07-30T07:58:49;27.70;99.90
35240;DHT22;21376;50.954;4.716;2023-07-30T08:01:14;26.10;99.90
35240;DHT22;21376;50.954;4.716;2023-07-30T08:03:43;26.00;99.90
35240;DHT22;21376;50.954;4.716;2023-07-30T08:09:12;26.60;99.90
35240;DHT22;21376;50.954;4.716;2023-07-30T08:11:41;25.50;99.90
35240;DHT22;21376;50.954;4.716;2023-07-30T08:14:13;26.00;99.90
35240;DHT22;21376;50.954;4.716;2023-07-30T08:16:41;26.70;99.90
35240;DHT22;21376;50.954;4.716;2023-07-30T08:19:07;27.80;99.90
35240;DHT22;21376;50.954;4.716;2023-07-30T08:21:36;27.70;99.90
35240;DHT22;21376;50.954;4.716;2023-07-30T08:24:09;27.80;99.90
35240;DHT22;21376;50.954;4.716;2023-07-30T08:29:05;26.00;99.90
35240;DHT22;21376;50.954;4.716;2023-07-30T08:34:03;23.50;99.90
35240;DHT22;21376;50.954;4.716;2023-07-30T08:36:29;23.40;99.90
35240;DHT22;21376;50.954;4.716;2023-07-30T08:38:58;23.30;99.90
35240;DHT22;21376;50.954;4.716;2023-07-30T08:44:13;23.40;99.90
35240;DHT22;21376;50.954;4.716;2023-07-30T08:46:39;24.50;99.90
35240;DHT22;21376;50.954;4.716;2023-07-30T08:49:04;23.90;99.90
35240;DHT22;21376;50.954;4.716;2023-07-30T08:51:31;23.10;99.90
35240;DHT22;21376;50.954;4.716;2023-07-30T08:53:57;22.80;99.90
35240;DHT22;21376;50.954;4.716;2023-07-30T08:56:23;22.30;99.90
35240;DHT22;21376;50.954;4.716;2023-07-30T09:01:52;22.90;99.90
35240;DHT22;21376;50.954;4.716;2023-07-30T09:10:19;26.00;99.90
35240;DHT22;21376;50.954;4.716;2023-07-30T09:15:39;23.70;99.90
35240;DHT22;21376;50.954;4.716;2023-07-30T09:18:08;23.10;99.90
35240;DHT22;21376;50.954;4.716;2023-07-30T09:20:40;22.80;99.90
35240;DHT22;21376;50.954;4.716;2023-07-30T09:23:12;22.10;99.90
35240;DHT22;21376;50.954;4.716;2023-07-30T09:25:41;21.20;99.90
35240;DHT22;21376;50.954;4.716;2023-07-30T09:28:10;20.30;99.90
35240;DHT22;21376;50.954;4.716;2023-07-30T09:30:37;20.10;99.90
35240;DHT22;21376;50.954;4.716;2023-07-30T09:33:22;20.10;99.90
35240;DHT22;21376;50.954;4.716;2023-07-30T09:38:28;20.10;99.90
35240;DHT22;21376;50.954;4.716;2023-07-30T09:41:02;20.40;99.90
35240;DHT22;21376;50.954;4.716;2023-07-30T09:43:37;20.80;99.90
35240;DHT22;21376;50.954;4.716;2023-07-30T09:48:35;21.60;99.90
35240;DHT22;21376;50.954;4.716;2023-07-30T09:51:03;21.70;99.90
35240;DHT22;21376;50.954;4.716;2023-07-30T09:53:33;21.20;99.90
35240;DHT22;21376;50.954;4.716;2023-07-30T09:56:03;20.30;99.90
35240;DHT22;21376;50.954;4.716;2023-07-30T09:58:36;19.70;99.90
35240;DHT22;21376;50.954;4.716;2023-07-30T10:01:18;18.90;99.90
35240;DHT22;21376;50.954;4.716;2023-07-30T10:03:47;18.40;99.90
35240;DHT22;21376;50.954;4.716;2023-07-30T10:11:07;19.70;99.90
35240;DHT22;21376;50.954;4.716;2023-07-30T10:13:34;20.10;99.90
35240;DHT22;21376;50.954;4.716;2023-07-30T10:16:00;19.80;99.90
35240;DHT22;21376;50.954;4.716;2023-07-30T10:18:42;19.40;99.90
35240;DHT22;21376;50.954;4.716;2023-07-30T10:21:09;19.10;99.90
35240;DHT22;21376;50.954;4.716;2023-07-30T10:23:35;18.60;99.90
35240;DHT22;21376;50.954;4.716;2023-07-30T10:26:11;18.20;99.90
35240;DHT22;21376;50.954;4.716;2023-07-30T10:28:39;17.60;99.90
35240;DHT22;21376;50.954;4.716;2023-07-30T10:31:09;18.10;99.90
35240;DHT22;21376;50.954;4.716;2023-07-30T10:33:47;18.50;99.90
35240;DHT22;21376;50.954;4.716;2023-07-30T10:36:18;19.50;99.90
35240;DHT22;21376;50.954;4.716;2023-07-30T10:38:45;20.80;99.90
35240;DHT22;21376;50.954;4.716;2023-07-30T10:41:15;21.20;99.90
35240;DHT22;21376;50.954;4.716;2023-07-30T10:43:46;21.30;99.90
35240;DHT22;21376;50.954;4.716;2023-07-30T10:46:13;22.50;99.90
35240;DHT22;21376;50.954;4.716;2023-07-30T10:48:44;23.50;99.90
35240;DHT22;21376;50.954;4.716;2023-07-30T10:51:13;25.40;99.90
35240;DHT22;21376;50.954;4.716;2023-07-30T10:56:48;27.40;99.90
35240;DHT22;21376;50.954;4.716;2023-07-30T10:59:14;30.00;99.90
35240;DHT22;21376;50.954;4.716;2023-07-30T11:01:44;29.70;99.90
35240;DHT22;21376;50.954;4.716;2023-07-30T11:04:15;28.80;99.90
35240;DHT22;21376;50.954;4.716;2023-07-30T11:06:44;29.40;99.90
35240;DHT22;21376;50.954;4.716;2023-07-30T11:09:18;28.40;99.90
35240;DHT22;21376;50.954;4.716;2023-07-30T11:11:45;26.70;99.90
35240;DHT22;21376;50.954;4.716;2023-07-30T11:14:26;26.30;99.90
35240;DHT22;21376;50.954;4.716;2023-07-30T11:19:28;26.20;99.90
35240;DHT22;21376;50.954;4.716;2023-07-30T11:21:54;27.80;99.90
35240;DHT22;21376;50.954;4.716;2023-07-30T11:24:32;28.50;99.90
35240;DHT22;21376;50.954;4.716;2023-07-30T11:26:59;28.50;99.90
35240;DHT22;21376;50.954;4.716;2023-07-30T11:29:25;29.00;99.90
35240;DHT22;21376;50.954;4.716;2023-07-30T11:31:50;27.70;99.90
35240;DHT22;21376;50.954;4.716;2023-07-30T11:34:17;27.40;99.90
35240;DHT22;21376;50.954;4.716;2023-07-30T11:36:44;27.10;99.90
35240;DHT22;21376;50.954;4.716;2023-07-30T11:39:10;28.40;99.90
35240;DHT22;21376;50.954;4.716;2023-07-30T11:41:36;27.50;99.90
35240;DHT22;21376;50.954;4.716;2023-07-30T11:44:02;27.10;99.90
35240;DHT22;21376;50.954;4.716;2023-07-30T11:46:30;26.20;99.90
35240;DHT22;21376;50.954;4.716;2023-07-30T11:49:16;25.40;99.90
35240;DHT22;21376;50.954;4.716;2023-07-30T11:51:43;24.70;99.90
35240;DHT22;21376;50.954;4.716;2023-07-30T11:54:23;23.60;99.90
35240;DHT22;21376;50.954;4.716;2023-07-30T11:56:58;23.30;99.90
35240;DHT22;21376;50.954;4.716;2023-07-30T11:59:25;24.00;99.90
35240;DHT22;21376;50.954;4.716;2023-07-30T12:01:54;26.20;99.90
35240;DHT22;21376;50.954;4.716;2023-07-30T12:06:52;28.40;99.90
35240;DHT22;21376;50.954;4.716;2023-07-30T12:09:24;28.00;99.90
35240;DHT22;21376;50.954;4.716;2023-07-30T12:11:57;29.40;99.90
35240;DHT22;21376;50.954;4.716;2023-07-30T12:17:03;30.40;99.90
35240;DHT22;21376;50.954;4.716;2023-07-30T12:19:28;30.30;99.90
35240;DHT22;21376;50.954;4.716;2023-07-30T12:21:54;29.10;99.90
35240;DHT22;21376;50.954;4.716;2023-07-30T12:24:21;29.20;99.90
35240;DHT22;21376;50.954;4.716;2023-07-30T12:26:49;29.80;99.90
35240;DHT22;21376;50.954;4.716;2023-07-30T12:29:17;29.80;99.90
35240;DHT22;21376;50.954;4.716;2023-07-30T12:31:46;29.10;99.90
35240;DHT22;21376;50.954;4.716;2023-07-30T12:34:15;29.10;99.90
35240;DHT22;21376;50.954;4.716;2023-07-30T12:36:43;29.80;99.90
35240;DHT22;21376;50.954;4.716;2023-07-30T12:39:10;30.10;99.90
35240;DHT22;21376;50.954;4.716;2023-07-30T12:41:36;30.50;99.90
35240;DHT22;21376;50.954;4.716;2023-07-30T12:44:01;31.30;99.20
35240;DHT22;21376;50.954;4.716;2023-07-30T12:46:30;30.60;99.90
35240;DHT22;21376;50.954;4.716;2023-07-30T12:48:57;29.40;99.30
35240;DHT22;21376;50.954;4.716;2023-07-30T12:51:34;28.70;98.70
35240;DHT22;21376;50.954;4.716;2023-07-30T12:54:02;27.30;99.90
35240;DHT22;21376;50.954;4.716;2023-07-30T12:56:33;26.20;99.90
35240;DHT22;21376;50.954;4.716;2023-07-30T12:58:59;26.20;99.90
35240;DHT22;21376;50.954;4.716;2023-07-30T13:01:24;26.80;99.90
35240;DHT22;21376;50.954;4.716;2023-07-30T13:03:51;27.90;99.90
35240;DHT22;21376;50.954;4.716;2023-07-30T13:06:25;28.60;99.30
35240;DHT22;21376;50.954;4.716;2023-07-30T13:08:57;28.40;99.90
35240;DHT22;21376;50.954;4.716;2023-07-30T13:11:26;27.80;99.90
35240;DHT22;21376;50.954;4.716;2023-07-30T13:16:35;26.20;99.90
35240;DHT22;21376;50.954;4.716;2023-07-30T13:21:35;26.30;99.90
35240;DHT22;21376;50.954;4.716;2023-07-30T13:24:04;27.80;99.90
35240;DHT22;21376;50.954;4.716;2023-07-30T13:26:30;28.50;99.90
35240;DHT22;21376;50.954;4.716;2023-07-30T13:31:28;27.40;99.90
35240;DHT22;21376;50.954;4.716;2023-07-30T13:34:00;26.80;99.90
35240;DHT22;21376;50.954;4.716;2023-07-30T13:36:27;27.10;99.90
35240;DHT22;21376;50.954;4.716;2023-07-30T13:38:53;27.20;99.90
35240;DHT22;21376;50.954;4.716;2023-07-30T13:41:22;26.90;99.90
35240;DHT22;21376;50.954;4.716;2023-07-30T13:43:49;26.60;99.90
35240;DHT22;21376;50.954;4.716;2023-07-30T13:46:18;26.20;99.90
35240;DHT22;21376;50.954;4.716;2023-07-30T13:48:54;26.30;99.90
35240;DHT22;21376;50.954;4.716;2023-07-30T13:51:20;25.80;99.90
35240;DHT22;21376;50.954;4.716;2023-07-30T13:53:49;25.30;99.90
35240;DHT22;21376;50.954;4.716;2023-07-30T13:56:17;25.20;99.90
35240;DHT22;21376;50.954;4.716;2023-07-30T13:58:42;25.10;99.90
35240;DHT22;21376;50.954;4.716;2023-07-30T14:01:10;25.50;99.90
35240;DHT22;21376;50.954;4.716;2023-07-30T14:03:39;25.20;99.90
35240;DHT22;21376;50.954;4.716;2023-07-30T14:06:04;24.90;99.90
35240;DHT22;21376;50.954;4.716;2023-07-30T14:08:30;25.10;99.90
35240;DHT22;21376;50.954;4.716;2023-07-30T14:10:58;25.20;99.90
35240;DHT22;21376;50.954;4.716;2023-07-30T14:13:26;25.10;99.90
35240;DHT22;21376;50.954;4.716;2023-07-30T14:15:53;25.10;99.90
35240;DHT22;21376;50.954;4.716;2023-07-30T14:21:24;24.90;99.90
35240;DHT22;21376;50.954;4.716;2023-07-30T14:23:53;24.90;99.90
35240;DHT22;21376;50.954;4.716;2023-07-30T14:26:22;24.80;99.90
35240;DHT22;21376;50.954;4.716;2023-07-30T14:31:19;24.70;99.90
35240;DHT22;21376;50.954;4.716;2023-07-30T14:36:28;25.20;99.90
35240;DHT22;21376;50.954;4.716;2023-07-30T14:38:53;25.00;99.90
35240;DHT22;21376;50.954;4.716;2023-07-30T14:41:20;25.00;99.90
35240;DHT22;21376;50.954;4.716;2023-07-30T14:43:49;24.80;99.90
35240;DHT22;21376;50.954;4.716;2023-07-30T14:46:24;24.50;99.90
35240;DHT22;21376;50.954;4.716;2023-07-30T14:48:51;24.20;99.90
35240;DHT22;21376;50.954;4.716;2023-07-30T14:51:19;24.00;99.90
35240;DHT22;21376;50.954;4.716;2023-07-30T14:53:44;23.90;99.90
35240;DHT22;21376;50.954;4.716;2023-07-30T14:56:16;24.30;99.90
35240;DHT22;21376;50.954;4.716;2023-07-30T14:58:45;24.40;99.90
35240;DHT22;21376;50.954;4.716;2023-07-30T15:01:16;24.50;99.90
35240;DHT22;21376;50.954;4.716;2023-07-30T15:03:44;24.70;99.90
35240;DHT22;21376;50.954;4.716;2023-07-30T15:08:40;24.50;99.90
35240;DHT22;21376;50.954;4.716;2023-07-30T15:14:14;23.70;99.90
35240;DHT22;21376;50.954;4.716;2023-07-30T15:16:40;23.40;99.90
35240;DHT22;21376;50.954;4.716;2023-07-30T15:21:35;23.30;99.90
35240;DHT22;21376;50.954;4.716;2023-07-30T15:24:11;23.20;99.90
35240;DHT22;21376;50.954;4.716;2023-07-30T15:29:09;22.90;99.90
35240;DHT22;21376;50.954;4.716;2023-07-30T15:34:06;22.60;99.90
35240;DHT22;21376;50.954;4.716;2023-07-30T15:52:47;20.10;99.90
35240;DHT22;21376;50.954;4.716;2023-07-30T15:55:16;19.50;99.90
35240;DHT22;21376;50.954;4.716;2023-07-30T16:00:23;19.00;99.90
35240;DHT22;21376;50.954;4.716;2023-07-30T16:02:49;18.90;99.90
35240;DHT22;21376;50.954;4.716;2023-07-30T16:05:15;18.70;99.90
35240;DHT22;21376;50.954;4.716;2023-07-30T16:10:10;18.70;99.90
35240;DHT22;21376;50.954;4.716;2023-07-30T16:12:39;18.80;99.90
35240;DHT22;21376;50.954;4.716;2023-07-30T16:15:11;18.90;99.90
35240;DHT22;21376;50.954;4.716;2023-07-30T16:17:39;19.00;99.90
35240;DHT22;21376;50.954;4.716;2023-07-30T16:20:08;19.20;99.90
35240;DHT22;21376;50.954;4.716;2023-07-30T16:22:34;19.30;99.90
35240;DHT22;21376;50.954;4.716;2023-07-30T16:25:05;19.30;99.90
35240;DHT22;21376;50.954;4.716;2023-07-30T16:27:47;19.20;99.90
35240;DHT22;21376;50.954;4.716;2023-07-30T16:30:14;19.10;99.90
35240;DHT22;21376;50.954;4.716;2023-07-30T16:32:42;18.70;99.90
35240;DHT22;21376;50.954;4.716;2023-07-30T16:35:08;18.60;99.90
35240;DHT22;21376;50.954;4.716;2023-07-30T16:45:13;17.80;99.90
35240;DHT22;21376;50.954;4.716;2023-07-30T16:47:42;17.70;99.90
35240;DHT22;21376;50.954;4.716;2023-07-30T16:50:08;17.30;99.90
35240;DHT22;21376;50.954;4.716;2023-07-30T16:55:04;17.40;99.90
35240;DHT22;21376;50.954;4.716;2023-07-30T16:57:32;17.30;99.90
35240;DHT22;21376;50.954;4.716;2023-07-30T17:02:35;17.30;99.90
35240;DHT22;21376;50.954;4.716;2023-07-30T17:05:00;17.30;99.90
35240;DHT22;21376;50.954;4.716;2023-07-30T17:07:26;17.30;99.90
35240;DHT22;21376;50.954;4.716;2023-07-30T17:09:53;17.40;99.90
35240;DHT22;21376;50.954;4.716;2023-07-30T17:12:19;17.40;99.90
35240;DHT22;21376;50.954;4.716;2023-07-30T17:14:46;17.30;99.90
35240;DHT22;21376;50.954;4.716;2023-07-30T17:17:13;17.30;99.90
35240;DHT22;21376;50.954;4.716;2023-07-30T17:19:39;17.20;99.90
35240;DHT22;21376;50.954;4.716;2023-07-30T17:22:06;17.20;99.90
35240;DHT22;21376;50.954;4.716;2023-07-30T17:24:32;17.30;99.90
35240;DHT22;21376;50.954;4.716;2023-07-30T17:26:59;17.20;99.90
35240;DHT22;21376;50.954;4.716;2023-07-30T17:29:24;17.10;99.90
35240;DHT22;21376;50.954;4.716;2023-07-30T17:31:50;17.00;99.90
35240;DHT22;21376;50.954;4.716;2023-07-30T17:34:16;17.00;99.90
35240;DHT22;21376;50.954;4.716;2023-07-30T17:36:44;16.90;99.90
35240;DHT22;21376;50.954;4.716;2023-07-30T17:41:43;16.80;99.90
35240;DHT22;21376;50.954;4.716;2023-07-30T17:44:15;16.60;99.90
35240;DHT22;21376;50.954;4.716;2023-07-30T17:46:42;16.50;99.90
35240;DHT22;21376;50.954;4.716;2023-07-30T17:49:09;16.50;99.90
35240;DHT22;21376;50.954;4.716;2023-07-30T17:51:39;16.50;99.90
35240;DHT22;21376;50.954;4.716;2023-07-30T17:54:05;16.40;99.90
35240;DHT22;21376;50.954;4.716;2023-07-30T17:56:36;16.50;99.90
35240;DHT22;21376;50.954;4.716;2023-07-30T17:59:03;16.60;99.90
35240;DHT22;21376;50.954;4.716;2023-07-30T18:01:28;16.50;99.90
35240;DHT22;21376;50.954;4.716;2023-07-30T18:03:55;16.50;99.90
35240;DHT22;21376;50.954;4.716;2023-07-30T18:06:23;16.30;99.90
35240;DHT22;21376;50.954;4.716;2023-07-30T18:08:50;16.40;99.90
35240;DHT22;21376;50.954;4.716;2023-07-30T18:11:16;16.50;99.90
35240;DHT22;21376;50.954;4.716;2023-07-30T18:13:42;16.40;99.90
35240;DHT22;21376;50.954;4.716;2023-07-30T18:16:11;16.50;99.90
35240;DHT22;21376;50.954;4.716;2023-07-30T18:18:38;16.50;99.90
35240;DHT22;21376;50.954;4.716;2023-07-30T18:21:05;16.50;99.90
35240;DHT22;21376;50.954;4.716;2023-07-30T18:23:31;16.50;99.90
35240;DHT22;21376;50.954;4.716;2023-07-30T18:25:56;16.60;99.90
35240;DHT22;21376;50.954;4.716;2023-07-30T18:28:22;16.60;99.90
35240;DHT22;21376;50.954;4.716;2023-07-30T18:33:17;16.70;99.90
35240;DHT22;21376;50.954;4.716;2023-07-30T18:35:44;16.60;99.90
35240;DHT22;21376;50.954;4.716;2023-07-30T18:38:10;16.60;99.90
35240;DHT22;21376;50.954;4.716;2023-07-30T18:43:04;16.70;99.90
35240;DHT22;21376;50.954;4.716;2023-07-30T18:45:31;16.80;99.90
35240;DHT22;21376;50.954;4.716;2023-07-30T18:47:59;16.70;99.90
35240;DHT22;21376;50.954;4.716;2023-07-30T18:50:26;16.70;99.90
35240;DHT22;21376;50.954;4.716;2023-07-30T18:52:53;16.70;99.90
35240;DHT22;21376;50.954;4.716;2023-07-30T18:55:23;16.60;99.90
35240;DHT22;21376;50.954;4.716;2023-07-30T18:57:49;16.60;99.90
35240;DHT22;21376;50.954;4.716;2023-07-30T19:00:15;16.70;99.90
35240;DHT22;21376;50.954;4.716;2023-07-30T19:02:40;16.60;99.90
35240;DHT22;21376;50.954;4.716;2023-07-30T19:05:12;16.60;99.90
35240;DHT22;21376;50.954;4.716;2023-07-30T19:07:38;16.60;99.90
35240;DHT22;21376;50.954;4.716;2023-07-30T19:10:04;16.60;99.90